Pagina principale
METAR-TAF:

METAR-TAF

Aeroporti :

Aeroporto di Portorose

Portorose, Slovenia

latitudine: 45-31N, longitudine: 013-34E, altezza: 95 m

Osservazione

Il bollettino è stato emesso 29 minuti fa, alle 00:30 UTC
Vento 7 kt da sud/sud-est, variando fra est/sud-est e sud
Temperature 19°C
Umidità 56%
Pressione 1004 hPa
Visibilità 10 km o più

METAR: LJPZ 160030Z AUTO 15007KT 110V190 9999 NCD 19/10 Q1004

Ora: 02:59 (00:59 UTC)

Previsione

Il bollettino è stato emesso 1 ora e 59 minuti fa, alle 23:00 UTC
Previsione valida dal 16 alle 00 UTC al 16 alle 09 UTC
Vento 8 kt da sud/sud-est
Visibilità 10 km o più
nessuna nube inferiore a 1500 m e nessun cumulonembo

TAF: LJPZ 152300Z 1600/1609 16008KT CAVOK

Osservazioni e previsioni meteorologiche di più di 4000 aeroporti (messaggi METAR e TAF).

Le stazioni disponibili sono rappresentate dai dischi gialli e rossi sulla carta.

Puntare il mouse per vedere il nome della stazione.

Clicca sopra per visualizzare le osservazioni e previsioni meteorologiche.

Per cambiare la mappa : fare clic sui pulsanti verdi con una croce nera per ingrandire, il pulsante verde con un trattino per diminuire, o sulla freccia verde per le mappe adiacenti.


METAR-TAF: